TimePST,TemperatureF,Dew PointF,Humidity,Sea Level PressureIn,VisibilityMPH,Wind Direction,Wind SpeedMPH,Gust SpeedMPH,PrecipitationIn,Events,Conditions,WindDirDegrees,DateUTC
12:51 AM,53.1,25.0,34,30.12,10.0,Calm,Calm,-,N/A,,Clear,0,2013-02-27 08:51:00
1:51 AM,51.1,30.0,44,30.14,10.0,NNE,4.6,-,N/A,,Clear,30,2013-02-27 09:51:00
2:51 AM,51.1,26.1,38,30.14,10.0,North,4.6,-,N/A,,Clear,350,2013-02-27 10:51:00
3:51 AM,50.0,23.0,35,30.16,10.0,North,3.5,-,N/A,,Clear,10,2013-02-27 11:51:00
4:51 AM,53.1,17.1,24,30.17,10.0,Calm,Calm,-,N/A,,Clear,0,2013-02-27 12:51:00
6:51 AM,55.0,15.1,21,30.19,10.0,NE,3.5,-,N/A,,Clear,50,2013-02-27 14:51:00
7:51 AM,60.1,19.9,21,30.22,10.0,NE,3.5,-,N/A,,Clear,40,2013-02-27 15:51:00
8:51 AM,64.9,24.1,21,30.22,10.0,East,3.5,-,N/A,,Clear,90,2013-02-27 16:51:00
9:51 AM,66.9,19.9,17,30.22,10.0,Variable,4.6,-,N/A,,Clear,0,2013-02-27 17:51:00
10:51 AM,70.0,18.0,14,30.23,10.0,Calm,Calm,-,N/A,,Clear,0,2013-02-27 18:51:00
11:51 AM,71.1,18.0,13,30.22,10.0,SSW,6.9,-,N/A,,Clear,210,2013-02-27 19:51:00
12:51 PM,72.0,21.0,15,30.20,10.0,SSW,9.2,-,N/A,,Clear,210,2013-02-27 20:51:00
1:51 PM,70.0,17.1,13,30.19,10.0,SW,9.2,-,N/A,,Clear,230,2013-02-27 21:51:00
2:51 PM,68.0,30.0,24,30.17,10.0,SW,10.4,-,N/A,,Clear,230,2013-02-27 22:51:00
3:51 PM,64.9,42.1,43,30.18,10.0,SSW,12.7,-,N/A,,Clear,210,2013-02-27 23:51:00
4:51 PM,64.0,46.0,52,30.17,10.0,South,6.9,-,N/A,,Clear,190,2013-02-28 00:51:00
5:51 PM,62.1,44.1,52,30.18,10.0,ENE,4.6,-,N/A,,Clear,70,2013-02-28 01:51:00
6:51 PM,64.0,30.9,29,30.20,10.0,North,4.6,-,N/A,,Clear,360,2013-02-28 02:51:00
7:51 PM,66.0,12.0,12,30.21,10.0,NW,5.8,-,N/A,,Clear,320,2013-02-28 03:51:00
8:51 PM,64.9,12.9,13,30.24,10.0,North,4.6,-,N/A,,Clear,350,2013-02-28 04:51:00
9:51 PM,60.1,21.0,22,30.26,10.0,Calm,Calm,-,N/A,,Clear,0,2013-02-28 05:51:00
10:51 PM,55.0,33.1,43,30.26,10.0,NNE,3.5,-,N/A,,Clear,20,2013-02-28 06:51:00